createdAt,value
2023-05-21T00:00:39.716Z,15.38
2023-05-21T00:03:01.419Z,15.35
2023-05-21T00:05:22.957Z,15.14
2023-05-21T00:07:45.906Z,15.09
2023-05-21T00:10:07.915Z,15.15
2023-05-21T00:12:29.419Z,15.14
2023-05-21T00:14:50.985Z,15.12
2023-05-21T00:17:12.459Z,15.07
2023-05-21T00:19:34.010Z,15.13
2023-05-21T00:21:56.096Z,14.93
2023-05-21T00:24:17.620Z,14.97
2023-05-21T00:26:39.101Z,14.97
2023-05-21T00:29:00.859Z,15.03
2023-05-21T00:31:22.385Z,14.96
2023-05-21T00:33:43.858Z,15.01
2023-05-21T00:36:06.129Z,15.03
2023-05-21T00:38:27.844Z,15.02
2023-05-21T00:40:50.446Z,15.04
2023-05-21T00:43:11.965Z,15.05
2023-05-21T00:45:33.581Z,14.89
2023-05-21T00:47:55.758Z,14.91
2023-05-21T00:50:17.564Z,14.94
2023-05-21T00:52:42.232Z,14.94
2023-05-21T00:55:04.261Z,15.04
2023-05-21T00:57:27.210Z,14.89
2023-05-21T00:59:53.020Z,14.71
2023-05-21T01:02:18.128Z,14.75
2023-05-21T01:04:39.763Z,14.73
2023-05-21T01:07:01.949Z,14.81
2023-05-21T01:09:23.473Z,14.73
2023-05-21T01:11:50.050Z,14.73
2023-05-21T01:14:14.755Z,14.77
2023-05-21T01:16:37.772Z,14.76
2023-05-21T01:18:59.735Z,14.64
2023-05-21T01:21:25.300Z,14.61
2023-05-21T01:23:47.082Z,14.54
2023-05-21T01:26:08.701Z,14.44
2023-05-21T01:28:30.162Z,14.42
2023-05-21T01:30:51.976Z,14.47
2023-05-21T01:33:52.677Z,14.48
2023-05-21T01:36:29.091Z,14.41
2023-05-21T01:39:09.292Z,14.49
2023-05-21T01:41:36.980Z,14.52
2023-05-21T01:43:59.101Z,14.52
2023-05-21T01:46:24.196Z,14.42
2023-05-21T01:48:46.831Z,14.37
2023-05-21T01:51:08.769Z,14.30
2023-05-21T01:53:30.523Z,14.33
2023-05-21T01:55:52.164Z,14.36
2023-05-21T01:58:13.843Z,14.32
2023-05-21T02:00:35.585Z,14.33
2023-05-21T02:02:57.169Z,14.25
2023-05-21T02:05:18.747Z,14.10
2023-05-21T02:07:41.013Z,14.11
2023-05-21T02:10:02.487Z,14.16
2023-05-21T02:12:24.287Z,14.21
2023-05-21T02:14:50.874Z,14.20
2023-05-21T02:17:12.356Z,14.21
2023-05-21T02:19:34.281Z,14.19
2023-05-21T02:21:56.298Z,14.17
2023-05-21T02:24:17.887Z,14.04
2023-05-21T02:26:39.406Z,14.02
2023-05-21T02:29:00.876Z,13.92
2023-05-21T02:31:22.346Z,13.86
2023-05-21T02:33:43.898Z,13.91
2023-05-21T02:36:05.962Z,13.98
2023-05-21T02:38:27.484Z,13.98
2023-05-21T02:40:51.944Z,13.90
2023-05-21T02:43:16.067Z,13.81
2023-05-21T02:45:38.037Z,13.76
2023-05-21T02:47:59.772Z,13.81
2023-05-21T02:50:22.796Z,13.82
2023-05-21T02:52:44.360Z,13.73
2023-05-21T02:55:06.322Z,13.64
2023-05-21T02:57:27.813Z,13.72
2023-05-21T02:59:49.342Z,13.70
2023-05-21T03:02:10.901Z,13.61
2023-05-21T03:04:33.189Z,13.61
2023-05-21T03:06:55.351Z,13.68
2023-05-21T03:09:16.816Z,13.71
2023-05-21T03:11:38.294Z,13.75
2023-05-21T03:13:59.746Z,13.77
2023-05-21T03:16:22.538Z,13.74
2023-05-21T03:18:45.132Z,13.70
2023-05-21T03:21:06.718Z,13.45
2023-05-21T03:23:28.230Z,13.39
2023-05-21T03:25:50.838Z,13.40
2023-05-21T03:28:12.324Z,13.54
2023-05-21T03:30:33.797Z,13.58
2023-05-21T03:32:56.428Z,13.61
2023-05-21T03:35:18.113Z,13.61
2023-05-21T03:37:39.578Z,13.57
2023-05-21T03:40:01.092Z,13.56
2023-05-21T03:42:22.526Z,13.63
2023-05-21T03:44:43.986Z,13.66
2023-05-21T03:47:05.692Z,13.69
2023-05-21T03:49:27.240Z,13.57
2023-05-21T03:51:48.734Z,13.55
2023-05-21T03:54:10.443Z,13.62
2023-05-21T03:56:31.909Z,13.63
2023-05-21T03:58:53.391Z,13.71
2023-05-21T04:01:14.928Z,13.53
2023-05-21T04:03:39.937Z,13.39
2023-05-21T04:06:03.223Z,13.55
2023-05-21T04:08:24.715Z,13.67
2023-05-21T04:10:46.219Z,13.76
2023-05-21T04:13:07.665Z,13.77
2023-05-21T04:15:29.150Z,13.82
2023-05-21T04:17:50.674Z,13.93
2023-05-21T04:20:13.711Z,13.95
2023-05-21T04:22:35.352Z,13.95
2023-05-21T04:24:56.820Z,13.98
2023-05-21T04:27:19.271Z,14.10
2023-05-21T04:29:43.370Z,14.02
2023-05-21T04:32:05.242Z,13.89
2023-05-21T04:34:26.713Z,13.89
2023-05-21T04:36:48.276Z,14.04
2023-05-21T04:39:09.728Z,14.13
2023-05-21T04:41:31.519Z,14.23
2023-05-21T04:43:55.670Z,14.39
2023-05-21T04:46:17.219Z,14.53
2023-05-21T04:48:39.009Z,14.60
2023-05-21T04:51:00.479Z,14.56
2023-05-21T04:53:23.082Z,14.67
2023-05-21T04:55:44.645Z,14.70
2023-05-21T04:58:07.280Z,14.81
2023-05-21T05:00:28.755Z,14.95
2023-05-21T05:02:50.396Z,14.86
2023-05-21T05:05:12.115Z,14.87
2023-05-21T05:07:33.635Z,15.01
2023-05-21T05:09:55.118Z,15.23
2023-05-21T05:12:16.613Z,15.40
2023-05-21T05:14:38.053Z,15.52
2023-05-21T05:17:00.289Z,15.62
2023-05-21T05:19:21.888Z,15.81
2023-05-21T05:21:43.459Z,16.03
2023-05-21T05:24:05.437Z,16.22
2023-05-21T05:26:27.026Z,16.22
2023-05-21T05:28:48.566Z,16.27
2023-05-21T05:31:10.140Z,16.40
2023-05-21T05:33:31.678Z,16.53
2023-05-21T05:35:53.136Z,16.61
2023-05-21T05:38:14.606Z,16.75
2023-05-21T05:40:36.082Z,16.80
2023-05-21T05:42:57.575Z,17.03
2023-05-21T05:45:20.000Z,17.29
2023-05-21T05:47:41.812Z,17.44
2023-05-21T05:50:03.449Z,17.54
2023-05-21T05:52:24.936Z,17.83
2023-05-21T05:54:47.084Z,17.93
2023-05-21T05:57:08.541Z,18.02
2023-05-21T05:59:30.014Z,18.29
2023-05-21T06:01:51.551Z,18.25
2023-05-21T06:04:13.033Z,18.34
2023-05-21T06:06:34.829Z,18.49
2023-05-21T06:08:56.413Z,18.80
2023-05-21T06:11:19.074Z,18.88
2023-05-21T06:13:41.001Z,19.14
2023-05-21T06:16:03.482Z,19.29
2023-05-21T06:18:25.094Z,19.37
2023-05-21T06:20:46.584Z,19.63
2023-05-21T06:23:08.871Z,19.60
2023-05-21T06:25:30.418Z,19.67
2023-05-21T06:27:51.919Z,20.02
2023-05-21T06:30:13.457Z,19.97
2023-05-21T06:32:34.943Z,19.98
2023-05-21T06:34:56.456Z,19.95
2023-05-21T06:37:26.436Z,20.10
2023-05-21T06:39:48.183Z,20.41
2023-05-21T06:42:09.666Z,20.54
2023-05-21T06:44:31.151Z,20.65
2023-05-21T06:46:52.705Z,20.78
2023-05-21T06:49:14.980Z,20.67
2023-05-21T06:51:36.492Z,20.85
2023-05-21T06:53:57.963Z,20.86
2023-05-21T06:56:19.422Z,21.03
2023-05-21T06:58:41.070Z,20.90
2023-05-21T07:01:02.879Z,21.00
2023-05-21T07:03:24.471Z,21.06
2023-05-21T07:05:46.439Z,21.04
2023-05-21T07:08:08.558Z,20.99
2023-05-21T07:10:30.121Z,21.06
2023-05-21T07:12:51.562Z,21.27
2023-05-21T07:15:14.165Z,21.36
2023-05-21T07:17:35.803Z,21.43
2023-05-21T07:19:57.278Z,21.50
2023-05-21T07:22:18.999Z,21.44
2023-05-21T07:24:40.500Z,21.56
2023-05-21T07:27:04.635Z,21.66
2023-05-21T07:29:30.261Z,21.87
2023-05-21T07:31:51.722Z,22.00
2023-05-21T07:34:13.257Z,21.80
2023-05-21T07:36:34.749Z,22.06
2023-05-21T07:38:56.319Z,21.64
2023-05-21T07:41:18.853Z,21.79
2023-05-21T07:43:40.605Z,21.80
2023-05-21T07:46:02.439Z,21.89
2023-05-21T07:48:23.978Z,21.97
2023-05-21T07:50:45.521Z,21.93
2023-05-21T07:53:07.067Z,21.96
2023-05-21T07:55:28.560Z,22.12
2023-05-21T07:57:52.286Z,22.09
2023-05-21T08:00:14.340Z,22.36
2023-05-21T08:02:36.261Z,22.53
2023-05-21T08:04:58.986Z,22.76
2023-05-21T08:07:21.960Z,22.71
2023-05-21T08:09:43.464Z,22.81
2023-05-21T08:12:05.171Z,22.86
2023-05-21T08:14:26.636Z,22.75
2023-05-21T08:16:48.137Z,23.11
2023-05-21T08:19:09.755Z,23.14
2023-05-21T08:21:32.696Z,23.15
2023-05-21T08:23:54.248Z,22.96
2023-05-21T08:26:18.681Z,22.74
2023-05-21T08:28:40.195Z,22.71
2023-05-21T08:31:02.026Z,22.80
2023-05-21T08:33:23.791Z,23.07
2023-05-21T08:35:45.310Z,23.11
2023-05-21T08:38:06.777Z,23.35
2023-05-21T08:40:28.258Z,23.38
2023-05-21T08:42:50.105Z,23.52
2023-05-21T08:45:14.085Z,23.74
2023-05-21T08:47:37.093Z,23.90
2023-05-21T08:50:00.646Z,24.04
2023-05-21T08:52:22.280Z,23.72
2023-05-21T08:54:45.746Z,23.64
2023-05-21T08:57:08.019Z,24.00
2023-05-21T08:59:29.534Z,23.94
2023-05-21T09:01:52.416Z,24.05
2023-05-21T09:04:21.197Z,24.15
2023-05-21T09:06:43.891Z,24.29
2023-05-21T09:09:14.574Z,24.31
2023-05-21T09:11:36.087Z,24.41
2023-05-21T09:13:58.357Z,24.30
2023-05-21T09:16:20.000Z,24.37
2023-05-21T09:18:41.614Z,24.56
2023-05-21T09:21:25.444Z,24.69
2023-05-21T09:23:48.140Z,25.07
2023-05-21T09:26:12.764Z,25.10
2023-05-21T09:28:36.221Z,25.27
2023-05-21T09:31:03.340Z,25.42
2023-05-21T09:33:26.275Z,25.65
2023-05-21T09:35:47.813Z,25.84
2023-05-21T09:38:09.616Z,26.16
2023-05-21T09:40:31.358Z,26.35
2023-05-21T09:42:56.136Z,26.24
2023-05-21T09:45:27.640Z,26.56
2023-05-21T09:47:51.187Z,26.65
2023-05-21T09:50:14.324Z,26.54
2023-05-21T09:52:41.909Z,26.69
2023-05-21T09:55:07.365Z,26.82
2023-05-21T09:57:29.383Z,26.79
2023-05-21T09:59:51.037Z,26.93
2023-05-21T10:02:18.986Z,27.09
2023-05-21T10:04:41.505Z,27.02
2023-05-21T10:07:04.047Z,27.03
2023-05-21T10:09:27.451Z,27.00
2023-05-21T10:11:52.238Z,27.24
2023-05-21T10:14:20.671Z,27.20
2023-05-21T10:16:43.001Z,27.21
2023-05-21T10:19:10.718Z,27.03
2023-05-21T10:21:33.468Z,27.12
2023-05-21T10:23:58.283Z,27.05
2023-05-21T10:26:21.629Z,27.26
2023-05-21T10:28:44.219Z,27.34
2023-05-21T10:31:06.714Z,27.60
2023-05-21T10:33:29.376Z,27.53
2023-05-21T10:35:53.182Z,27.60
2023-05-21T10:38:18.589Z,27.58
2023-05-21T10:40:40.463Z,27.64
2023-05-21T10:43:20.621Z,27.78
2023-05-21T10:45:50.632Z,28.14
2023-05-21T10:48:33.275Z,28.77
2023-05-21T10:51:22.283Z,29.30
2023-05-21T10:54:02.395Z,29.54
2023-05-21T10:56:30.683Z,29.48
2023-05-21T10:59:22.075Z,29.79
2023-05-21T11:01:45.220Z,30.01
2023-05-21T11:04:07.376Z,30.66
2023-05-21T11:06:29.053Z,31.21
2023-05-21T11:08:53.128Z,31.63
2023-05-21T11:11:42.876Z,31.67
2023-05-21T11:14:31.782Z,31.81
2023-05-21T11:16:53.284Z,32.20
2023-05-21T11:19:19.686Z,33.00
2023-05-21T11:21:41.158Z,33.78
2023-05-21T11:24:05.132Z,33.94
2023-05-21T11:26:29.435Z,33.87
2023-05-21T11:29:06.196Z,34.40
2023-05-21T11:31:29.845Z,35.01
2023-05-21T11:34:14.032Z,34.95
2023-05-21T11:36:37.973Z,34.97
2023-05-21T11:39:10.942Z,35.52
2023-05-21T11:41:50.091Z,35.60
2023-05-21T11:44:11.567Z,36.13
2023-05-21T11:46:34.243Z,36.71
2023-05-21T11:48:56.791Z,37.08
2023-05-21T11:51:18.328Z,37.33
2023-05-21T11:53:44.284Z,37.45
2023-05-21T11:56:09.831Z,38.06
2023-05-21T11:58:31.368Z,38.46
2023-05-21T12:00:53.282Z,37.03
2023-05-21T12:03:15.606Z,36.31
2023-05-21T12:05:49.807Z,35.85
2023-05-21T12:08:11.399Z,35.22
2023-05-21T12:10:32.876Z,34.82
2023-05-21T12:12:56.982Z,34.41
2023-05-21T12:15:19.967Z,35.09
2023-05-21T12:17:41.721Z,36.03
2023-05-21T12:20:07.583Z,36.48
2023-05-21T12:22:29.881Z,37.17
2023-05-21T12:24:53.689Z,37.46
2023-05-21T12:27:16.741Z,37.88
2023-05-21T12:29:39.395Z,38.18
2023-05-21T12:32:02.068Z,37.98
2023-05-21T12:34:43.060Z,38.45
2023-05-21T12:37:06.646Z,38.86
2023-05-21T12:39:30.231Z,39.60
2023-05-21T12:41:54.431Z,39.66
2023-05-21T12:44:16.368Z,39.60
2023-05-21T12:46:37.960Z,39.80
2023-05-21T12:48:59.528Z,40.21
2023-05-21T12:51:21.082Z,40.57
2023-05-21T12:53:43.320Z,39.51
2023-05-21T12:56:12.425Z,39.32
2023-05-21T12:58:33.908Z,39.02
2023-05-21T13:00:56.518Z,38.97
2023-05-21T13:03:19.107Z,38.83
2023-05-21T13:05:41.425Z,38.66
2023-05-21T13:08:03.057Z,38.43
2023-05-21T13:10:24.550Z,38.70
2023-05-21T13:12:46.064Z,38.56
2023-05-21T13:15:08.159Z,37.74
2023-05-21T13:17:29.902Z,37.49
2023-05-21T13:20:15.303Z,37.88
2023-05-21T13:22:39.209Z,37.37
2023-05-21T13:25:01.101Z,37.77
2023-05-21T13:27:22.595Z,38.40
2023-05-21T13:29:44.075Z,39.55
2023-05-21T13:32:06.075Z,40.02
2023-05-21T13:34:27.632Z,39.85
2023-05-21T13:36:49.110Z,40.47
2023-05-21T13:39:10.768Z,41.08
2023-05-21T13:41:32.320Z,41.08
2023-05-21T13:43:53.807Z,41.64
2023-05-21T13:46:15.376Z,42.67
2023-05-21T13:48:36.845Z,42.61
2023-05-21T13:50:58.290Z,42.64
2023-05-21T13:53:19.829Z,43.04
2023-05-21T13:55:41.290Z,43.18
2023-05-21T13:58:03.376Z,43.64
2023-05-21T14:00:24.826Z,43.59
2023-05-21T14:02:46.368Z,43.21
2023-05-21T14:05:08.270Z,43.04
2023-05-21T14:07:29.845Z,41.75
2023-05-21T14:09:52.389Z,41.83
2023-05-21T14:12:13.892Z,41.35
2023-05-21T14:14:36.176Z,41.56
2023-05-21T14:16:57.894Z,40.95
2023-05-21T14:19:19.507Z,39.94
2023-05-21T14:21:41.745Z,41.16
2023-05-21T14:24:03.346Z,41.42
2023-05-21T14:26:24.970Z,42.46
2023-05-21T14:28:46.406Z,42.80
2023-05-21T14:31:08.432Z,42.96
2023-05-21T14:33:32.036Z,43.21
2023-05-21T14:35:53.490Z,42.19
2023-05-21T14:38:15.020Z,41.51
2023-05-21T14:40:36.583Z,41.05
2023-05-21T14:42:58.085Z,40.64
2023-05-21T14:45:19.952Z,40.42
2023-05-21T14:47:41.514Z,41.13
2023-05-21T14:50:03.086Z,42.04
2023-05-21T14:52:24.570Z,42.82
2023-05-21T14:54:46.134Z,43.96
2023-05-21T14:57:07.624Z,43.90
2023-05-21T14:59:29.095Z,44.21
2023-05-21T15:01:50.778Z,42.94
2023-05-21T15:04:12.393Z,43.19
2023-05-21T15:06:34.784Z,42.90
2023-05-21T15:08:56.325Z,43.17
2023-05-21T15:11:17.840Z,43.24
2023-05-21T15:13:39.343Z,42.41
2023-05-21T15:16:00.991Z,41.85
2023-05-21T15:18:24.675Z,41.38
2023-05-21T15:20:46.153Z,39.22
2023-05-21T15:23:16.819Z,37.71
2023-05-21T15:25:39.226Z,36.75
2023-05-21T15:28:00.843Z,36.47
2023-05-21T15:30:22.461Z,35.93
2023-05-21T15:32:44.115Z,35.24
2023-05-21T15:35:05.993Z,34.72
2023-05-21T15:37:27.609Z,34.56
2023-05-21T15:39:49.134Z,34.36
2023-05-21T15:42:11.679Z,35.07
2023-05-21T15:44:33.152Z,35.85
2023-05-21T15:46:54.844Z,35.69
2023-05-21T15:49:16.923Z,35.37
2023-05-21T15:51:38.581Z,35.44
2023-05-21T15:54:00.043Z,35.72
2023-05-21T15:56:22.055Z,37.26
2023-05-21T15:58:43.552Z,37.80
2023-05-21T16:01:05.085Z,38.42
2023-05-21T16:03:26.823Z,39.24
2023-05-21T16:05:48.419Z,38.37
2023-05-21T16:08:11.443Z,39.24
2023-05-21T16:10:32.932Z,40.11
2023-05-21T16:12:54.538Z,40.83
2023-05-21T16:15:16.478Z,41.31
2023-05-21T16:17:38.003Z,41.22
2023-05-21T16:19:59.471Z,41.51
2023-05-21T16:22:21.252Z,41.24
2023-05-21T16:24:42.700Z,42.08
2023-05-21T16:27:05.010Z,41.64
2023-05-21T16:29:26.663Z,41.02
2023-05-21T16:31:48.243Z,41.10
2023-05-21T16:34:09.703Z,41.06
2023-05-21T16:36:31.435Z,40.03
2023-05-21T16:38:52.950Z,39.12
2023-05-21T16:41:14.516Z,38.87
2023-05-21T16:43:36.283Z,37.94
2023-05-21T16:45:57.821Z,38.19
2023-05-21T16:48:19.421Z,37.95
2023-05-21T16:50:41.124Z,36.94
2023-05-21T16:53:02.836Z,36.24
2023-05-21T16:55:24.305Z,35.95
2023-05-21T16:57:46.045Z,36.10
2023-05-21T17:00:08.040Z,35.87
2023-05-21T17:02:29.586Z,35.78
2023-05-21T17:04:51.386Z,35.72
2023-05-21T17:07:12.832Z,35.69
2023-05-21T17:09:34.298Z,35.99
2023-05-21T17:11:56.034Z,36.14
2023-05-21T17:14:32.635Z,36.13
2023-05-21T17:16:55.054Z,36.11
2023-05-21T17:19:16.780Z,36.03
2023-05-21T17:21:38.326Z,36.24
2023-05-21T17:24:00.112Z,36.15
2023-05-21T17:26:22.389Z,36.02
2023-05-21T17:28:43.861Z,35.83
2023-05-21T17:31:08.430Z,35.05
2023-05-21T17:33:29.980Z,34.40
2023-05-21T17:35:51.447Z,34.12
2023-05-21T17:38:14.112Z,33.77
2023-05-21T17:40:35.642Z,33.29
2023-05-21T17:42:57.161Z,33.18
2023-05-21T17:45:19.033Z,33.21
2023-05-21T17:47:40.602Z,33.08
2023-05-21T17:50:02.081Z,32.98
2023-05-21T17:52:23.644Z,32.85
2023-05-21T17:54:45.164Z,32.83
2023-05-21T17:57:06.644Z,32.60
2023-05-21T17:59:28.143Z,32.49
2023-05-21T18:06:06.836Z,32.47
2023-05-21T18:08:29.632Z,32.36
2023-05-21T18:10:51.131Z,32.19
2023-05-21T18:13:12.590Z,31.93
2023-05-21T18:15:34.357Z,31.73
2023-05-21T18:17:55.973Z,31.49
2023-05-21T18:20:18.617Z,31.36
2023-05-21T18:22:40.054Z,31.10
2023-05-21T18:25:02.297Z,30.99
2023-05-21T18:27:23.787Z,30.72
2023-05-21T18:29:46.901Z,30.53
2023-05-21T18:32:08.577Z,30.28
2023-05-21T18:34:30.106Z,30.11
2023-05-21T18:36:54.501Z,29.96
2023-05-21T18:39:16.060Z,29.85
2023-05-21T18:41:38.868Z,29.64
2023-05-21T18:44:01.821Z,29.40
2023-05-21T18:46:23.438Z,29.20
2023-05-21T18:48:46.086Z,29.09
2023-05-21T18:51:07.566Z,28.89
2023-05-21T18:53:29.082Z,28.73
2023-05-21T18:55:50.578Z,28.54
2023-05-21T18:58:12.050Z,28.26
2023-05-21T19:00:34.641Z,28.03
2023-05-21T19:02:56.673Z,27.99
2023-05-21T19:05:18.263Z,27.72
2023-05-21T19:07:43.267Z,27.47
2023-05-21T19:10:05.165Z,27.27
2023-05-21T19:12:27.011Z,26.97
2023-05-21T19:14:48.550Z,26.78
2023-05-21T19:17:10.112Z,26.61
2023-05-21T19:19:31.700Z,26.45
2023-05-21T19:21:53.449Z,26.33
2023-05-21T19:24:14.942Z,26.30
2023-05-21T19:26:36.456Z,26.15
2023-05-21T19:28:57.915Z,26.10
2023-05-21T19:31:20.073Z,26.04
2023-05-21T19:33:41.632Z,26.06
2023-05-21T19:36:03.355Z,25.95
2023-05-21T19:38:24.819Z,25.86
2023-05-21T19:40:46.300Z,25.67
2023-05-21T19:43:07.754Z,25.74
2023-05-21T19:45:29.271Z,25.65
2023-05-21T19:47:51.203Z,25.51
2023-05-21T19:50:12.833Z,25.45
2023-05-21T19:52:34.287Z,25.26
2023-05-21T19:54:56.530Z,25.18
2023-05-21T19:57:18.014Z,25.07
2023-05-21T19:59:39.522Z,25.01
2023-05-21T20:02:01.276Z,24.93
2023-05-21T20:04:22.915Z,24.82
2023-05-21T20:06:44.492Z,24.68
2023-05-21T20:09:07.282Z,24.59
2023-05-21T20:11:28.810Z,24.56
2023-05-21T20:13:50.561Z,24.50
2023-05-21T20:16:12.655Z,24.40
2023-05-21T20:18:34.298Z,24.40
2023-05-21T20:20:56.828Z,24.27
2023-05-21T20:23:18.347Z,24.21
2023-05-21T20:25:39.879Z,24.14
2023-05-21T20:28:01.475Z,24.08
2023-05-21T20:30:23.315Z,23.90
2023-05-21T20:32:44.885Z,23.87
2023-05-21T20:35:09.141Z,23.82
2023-05-21T20:37:32.398Z,23.65
2023-05-21T20:39:57.857Z,23.51
2023-05-21T20:42:19.905Z,23.36
2023-05-21T20:44:41.369Z,23.43
2023-05-21T20:47:06.445Z,23.36
2023-05-21T20:49:28.216Z,23.22
2023-05-21T20:51:49.699Z,23.14
2023-05-21T20:54:11.516Z,23.11
2023-05-21T20:56:42.338Z,23.03
2023-05-21T20:59:04.387Z,23.04
2023-05-21T21:01:30.424Z,22.93
2023-05-21T21:03:51.921Z,22.89
2023-05-21T21:06:14.108Z,22.82
2023-05-21T21:08:35.597Z,22.63
2023-05-21T21:10:57.065Z,22.46
2023-05-21T21:13:18.561Z,22.45
2023-05-21T21:15:40.126Z,22.39
2023-05-21T21:18:01.715Z,22.31
2023-05-21T21:20:23.206Z,22.21
2023-05-21T21:22:45.260Z,22.17
2023-05-21T21:25:07.095Z,21.83
2023-05-21T21:27:28.560Z,22.01
2023-05-21T21:29:50.038Z,21.95
2023-05-21T21:32:12.170Z,21.94
2023-05-21T21:34:33.667Z,21.97
2023-05-21T21:36:55.174Z,21.98
2023-05-21T21:39:17.538Z,21.92
2023-05-21T21:41:39.074Z,21.87
2023-05-21T21:44:01.028Z,21.66
2023-05-21T21:46:22.694Z,21.67
2023-05-21T21:48:44.475Z,21.68
2023-05-21T21:51:06.435Z,21.70
2023-05-21T21:53:27.985Z,21.65
2023-05-21T21:55:50.928Z,21.65
2023-05-21T21:58:12.408Z,21.56
2023-05-21T22:00:33.885Z,21.36
2023-05-21T22:02:55.673Z,21.38
2023-05-21T22:05:17.526Z,21.33
2023-05-21T22:07:42.030Z,21.24
2023-05-21T22:10:03.532Z,21.08
2023-05-21T22:12:25.125Z,20.99
2023-05-21T22:14:46.595Z,20.91
2023-05-21T22:17:08.998Z,20.85
2023-05-21T22:19:32.774Z,20.87
2023-05-21T22:21:54.526Z,20.79
2023-05-21T22:24:30.944Z,20.67
2023-05-21T22:26:53.274Z,20.61
2023-05-21T22:29:14.787Z,20.61
2023-05-21T22:31:36.414Z,20.54
2023-05-21T22:33:57.977Z,20.41
2023-05-21T22:36:19.488Z,20.38
2023-05-21T22:38:41.045Z,20.36
2023-05-21T22:41:03.605Z,20.25
2023-05-21T22:43:26.288Z,20.05
2023-05-21T22:45:47.826Z,19.95
2023-05-21T22:48:09.626Z,20.03
2023-05-21T22:50:32.834Z,19.98
2023-05-21T22:52:54.353Z,19.70
2023-05-21T22:55:16.431Z,19.70
2023-05-21T22:57:38.213Z,19.74
2023-05-21T22:59:59.673Z,19.60
2023-05-21T23:02:21.325Z,19.48
2023-05-21T23:04:44.558Z,19.53
2023-05-21T23:07:06.334Z,19.50
2023-05-21T23:09:27.787Z,19.35
2023-05-21T23:11:49.280Z,19.20
2023-05-21T23:14:10.759Z,19.21
2023-05-21T23:16:32.540Z,19.18
2023-05-21T23:18:54.450Z,18.97
2023-05-21T23:21:16.704Z,18.92
2023-05-21T23:23:38.161Z,18.73
2023-05-21T23:25:59.715Z,18.67
2023-05-21T23:28:21.257Z,18.60
2023-05-21T23:30:42.738Z,18.71
2023-05-21T23:33:04.253Z,18.68
2023-05-21T23:35:25.898Z,18.51
2023-05-21T23:37:47.695Z,18.54
2023-05-21T23:40:09.634Z,18.53
2023-05-21T23:42:31.133Z,18.36
2023-05-21T23:44:53.722Z,18.28
2023-05-21T23:47:15.364Z,18.36
2023-05-21T23:49:36.831Z,18.37
2023-05-21T23:51:58.910Z,18.37
2023-05-21T23:54:20.468Z,18.41
2023-05-21T23:56:41.947Z,18.33
2023-05-21T23:59:03.446Z,17.99
